Terminal Aerodrome Forecast
Issued by NWS Cleveland, OH

Home | Current Version | Previous Version | Graphics & Text | Print | Product List | Glossary On
Versions: 1 2 3 4 5 6 7 8 9 10 11 12 13 14 15 16 17 18 19 20
674
FTUS41 KCLE 262326
TAFMFD
TAF
KMFD 262326Z 2700/2724 20004KT P6SM SCT090 BKN200
     FM271800 19006KT P6SM -SHRA VCTS SCT017CB OVC090
     FM272200 19006KT P6SM SCT016 OVC110=

USA.gov is the U.S. government's official web portal to all federal, state and local government web resources and services.